Time;durP1;ratioP1;P1;durP2;ratioP2;P2;SDS_P1;SDS_P2;PMS_P1;PMS_P2;Temp;Humidity;BMP_temperature;BMP_pressure;BME280_temperature;BME280_humidity;BME280_pressure;Samples;Min_cycle;Max_cycle;Signal;HPM_P1;HPM_P2
2023/03/20 00:01:35;;;;;;;2.87;2.77;;;;;;;;;;6165454;28;20266;-75
2023/03/20 00:04:40;;;;;;;2.90;2.70;;;;;;;;;;6164939;28;20301;-75
2023/03/20 00:07:46;;;;;;;3.30;3.10;;;;;;;;;;6163818;28;20271;-76
2023/03/20 00:10:51;;;;;;;3.37;3.17;;;;;;;;;;6165532;28;20453;-74
2023/03/20 00:13:59;;;;;;;3.77;3.10;;;;;;;;;;6165443;28;20461;-74
2023/03/20 00:17:10;;;;;;;3.40;3.20;;;;;;;;;;6166267;28;20295;-74
2023/03/20 00:20:16;;;;;;;3.37;3.10;;;;;;;;;;6165154;28;20306;-74
2023/03/20 00:23:22;;;;;;;3.60;3.30;;;;;;;;;;6164928;28;20297;-75
2023/03/20 00:26:28;;;;;;;3.10;2.90;;;;;;;;;;6165896;28;20294;-77
2023/03/20 00:29:35;;;;;;;3.57;3.37;;;;;;;;;;6165713;28;20303;-75
2023/03/20 00:32:40;;;;;;;3.10;2.90;;;;;;;;;;6165217;28;20302;-74
2023/03/20 00:35:48;;;;;;;3.93;3.60;;;;;;;;;;6164307;28;20295;-74
2023/03/20 00:38:53;;;;;;;4.00;3.23;;;;;;;;;;6163557;28;20297;-75
2023/03/20 00:42:00;;;;;;;3.40;3.20;;;;;;;;;;6165537;28;20301;-74
2023/03/20 00:45:12;;;;;;;4.33;3.50;;;;;;;;;;6164799;28;20313;-75
2023/03/20 00:48:17;;;;;;;5.47;3.60;;;;;;;;;;6164447;28;20294;-74
2023/03/20 00:51:22;;;;;;;3.60;3.30;;;;;;;;;;6164963;28;20297;-76
2023/03/20 00:54:29;;;;;;;4.57;3.33;;;;;;;;;;6164257;28;20318;-76
2023/03/20 00:57:43;;;;;;;5.73;3.20;;;;;;;;;;6165069;28;20294;-74
2023/03/20 01:00:50;;;;;;;3.37;3.17;;;;;;;;;;6164458;28;20301;-75
2023/03/20 01:03:55;;;;;;;4.03;3.40;;;;;;;;;;6195324;28;20299;-77
2023/03/20 01:07:00;;;;;;;3.47;3.17;;;;;;;;;;6162965;28;20299;-74
2023/03/20 01:10:07;;;;;;;3.23;3.03;;;;;;;;;;6162970;28;20294;-74
2023/03/20 01:13:20;;;;;;;3.33;3.00;;;;;;;;;;6164152;28;20305;-75
2023/03/20 01:16:28;;;;;;;2.97;2.80;;;;;;;;;;6164684;28;20501;-75
2023/03/20 01:19:33;;;;;;;3.83;3.10;;;;;;;;;;6163966;28;20307;-74
2023/03/20 01:22:39;;;;;;;3.50;3.20;;;;;;;;;;6164296;28;20271;-74
2023/03/20 01:25:44;;;;;;;3.60;3.30;;;;;;;;;;6164648;28;20273;-75
2023/03/20 01:28:50;;;;;;;3.23;2.93;;;;;;;;;;6162868;28;20299;-75
2023/03/20 01:31:57;;;;;;;3.13;2.93;;;;;;;;;;6163784;28;20290;-75
2023/03/20 01:35:04;;;;;;;3.43;3.10;;;;;;;;;;6163240;28;20579;-74
2023/03/20 01:38:14;;;;;;;3.50;3.23;;;;;;;;;;6162496;28;20306;-75
2023/03/20 01:41:20;;;;;;;3.43;3.23;;;;;;;;;;6163173;28;20293;-74
2023/03/20 01:44:28;;;;;;;3.40;3.07;;;;;;;;;;6162218;28;20299;-75
2023/03/20 01:47:37;;;;;;;2.83;2.63;;;;;;;;;;6162662;28;20299;-75
2023/03/20 01:50:42;;;;;;;3.23;3.03;;;;;;;;;;6193445;28;20595;-76
2023/03/20 01:53:53;;;;;;;3.10;2.90;;;;;;;;;;6161749;28;20297;-74
2023/03/20 01:57:03;;;;;;;2.90;2.77;;;;;;;;;;6162494;28;20305;-74
2023/03/20 02:00:14;;;;;;;2.80;2.70;;;;;;;;;;6162185;28;20306;-75
2023/03/20 02:03:22;;;;;;;3.17;2.90;;;;;;;;;;6163068;28;20480;-75
2023/03/20 02:06:50;;;;;;;3.00;2.80;;;;;;;;;;6162493;28;20297;-74
2023/03/20 02:10:04;;;;;;;2.93;2.73;;;;;;;;;;6162080;28;20299;-75
2023/03/20 02:13:32;;;;;;;2.60;2.50;;;;;;;;;;6163556;28;20297;-75
2023/03/20 02:16:37;;;;;;;2.90;2.80;;;;;;;;;;6161358;28;20291;-74
2023/03/20 02:19:56;;;;;;;2.70;2.60;;;;;;;;;;6161693;28;20304;-75
2023/03/20 02:23:34;;;;;;;3.07;2.83;;;;;;;;;;6162056;28;20380;-75
2023/03/20 02:26:50;;;;;;;2.90;2.70;;;;;;;;;;6162704;28;20466;-75
2023/03/20 02:30:24;;;;;;;3.20;3.00;;;;;;;;;;6161319;28;20309;-75
2023/03/20 02:34:08;;;;;;;2.97;2.77;;;;;;;;;;6161527;28;20299;-75
2023/03/20 02:37:49;;;;;;;3.13;2.90;;;;;;;;;;6133750;29;20307;-74
2023/03/20 02:41:02;;;;;;;3.20;3.00;;;;;;;;;;6160474;28;20301;-75
2023/03/20 02:44:11;;;;;;;3.00;2.90;;;;;;;;;;6161220;28;20296;-74
2023/03/20 02:47:22;;;;;;;2.70;2.60;;;;;;;;;;6139082;28;20621;-74
2023/03/20 02:50:33;;;;;;;2.83;2.73;;;;;;;;;;6138939;28;20304;-74
2023/03/20 02:53:51;;;;;;;2.93;2.83;;;;;;;;;;6169450;28;20300;-73
2023/03/20 02:57:01;;;;;;;3.50;3.30;;;;;;;;;;6169722;28;20308;-75
2023/03/20 03:00:12;;;;;;;3.40;3.20;;;;;;;;;;6139100;28;20626;-74
2023/03/20 03:03:20;;;;;;;3.43;3.13;;;;;;;;;;6137006;28;20644;-74
2023/03/20 03:06:28;;;;;;;3.20;2.93;;;;;;;;;;6170088;28;20503;-75
2023/03/20 03:09:37;;;;;;;3.57;3.30;;;;;;;;;;6137474;28;20298;-75
2023/03/20 03:12:44;;;;;;;3.57;3.27;;;;;;;;;;6193253;28;20583;-75
2023/03/20 03:15:52;;;;;;;3.60;3.40;;;;;;;;;;6161499;28;20473;-75
2023/03/20 03:19:03;;;;;;;3.50;3.27;;;;;;;;;;6162066;28;20296;-76
2023/03/20 03:22:11;;;;;;;3.43;3.07;;;;;;;;;;6161739;28;20475;-74
2023/03/20 03:25:18;;;;;;;3.90;3.50;;;;;;;;;;6160699;28;20300;-75
2023/03/20 03:28:30;;;;;;;4.13;3.73;;;;;;;;;;6161176;28;20300;-75
2023/03/20 03:31:36;;;;;;;5.53;3.53;;;;;;;;;;6162372;28;20277;-74
2023/03/20 03:34:41;;;;;;;4.30;3.90;;;;;;;;;;6193513;28;20300;-75
2023/03/20 03:37:53;;;;;;;5.10;4.17;;;;;;;;;;6160134;28;20296;-74
2023/03/20 03:41:09;;;;;;;4.03;3.73;;;;;;;;;;6162261;28;20378;-75
2023/03/20 03:44:18;;;;;;;5.17;4.37;;;;;;;;;;6165784;28;20309;-74
2023/03/20 03:47:25;;;;;;;4.30;3.97;;;;;;;;;;6166341;28;20303;-76
2023/03/20 03:50:33;;;;;;;3.83;3.53;;;;;;;;;;6165337;28;20321;-75
2023/03/20 03:53:41;;;;;;;4.20;3.90;;;;;;;;;;6165030;28;20292;-75
2023/03/20 03:56:49;;;;;;;4.67;3.67;;;;;;;;;;6165185;28;20305;-75
2023/03/20 03:59:55;;;;;;;3.70;3.40;;;;;;;;;;6165369;28;20297;-75
2023/03/20 04:03:01;;;;;;;3.37;3.17;;;;;;;;;;6162225;28;20252;-73
2023/03/20 04:06:07;;;;;;;2.80;2.70;;;;;;;;;;6165225;28;20301;-74
2023/03/20 04:09:12;;;;;;;3.13;3.03;;;;;;;;;;6165633;28;20307;-74
2023/03/20 04:12:33;;;;;;;3.50;3.30;;;;;;;;;;6165126;28;20302;-74
2023/03/20 04:15:38;;;;;;;3.27;3.07;;;;;;;;;;6164119;28;20539;-75
2023/03/20 04:18:46;;;;;;;3.10;3.00;;;;;;;;;;6164091;28;20292;-74
2023/03/20 04:21:54;;;;;;;2.60;2.50;;;;;;;;;;6166031;28;20296;-74
2023/03/20 04:24:59;;;;;;;2.87;2.67;;;;;;;;;;6164257;28;20298;-77
2023/03/20 04:28:07;;;;;;;2.60;2.40;;;;;;;;;;6164452;28;20608;-75
2023/03/20 04:31:28;;;;;;;2.63;2.53;;;;;;;;;;6165075;28;20300;-74
2023/03/20 04:34:46;;;;;;;2.90;2.70;;;;;;;;;;6164625;28;20304;-75
2023/03/20 04:38:21;;;;;;;5.50;2.50;;;;;;;;;;6140426;28;20619;-75
2023/03/20 04:41:29;;;;;;;2.57;2.53;;;;;;;;;;6142350;28;20310;-75
2023/03/20 04:44:36;;;;;;;2.30;2.20;;;;;;;;;;6159669;28;20607;-75
2023/03/20 04:47:42;;;;;;;2.40;2.30;;;;;;;;;;6164277;28;20304;-75
2023/03/20 04:50:49;;;;;;;2.13;2.13;;;;;;;;;;6164157;28;20296;-75
2023/03/20 04:54:00;;;;;;;2.20;2.20;;;;;;;;;;6162777;28;20295;-74
2023/03/20 04:57:05;;;;;;;2.30;2.30;;;;;;;;;;6163741;28;20442;-74
2023/03/20 05:00:15;;;;;;;2.40;2.40;;;;;;;;;;6164622;28;20298;-75
2023/03/20 05:03:21;;;;;;;2.30;2.20;;;;;;;;;;6162421;28;20613;-74
2023/03/20 05:06:29;;;;;;;2.83;2.73;;;;;;;;;;6163726;28;20295;-75
2023/03/20 05:09:35;;;;;;;2.93;2.80;;;;;;;;;;6163950;28;20307;-74
2023/03/20 05:12:42;;;;;;;2.50;2.40;;;;;;;;;;6163405;28;20307;-75
2023/03/20 05:15:51;;;;;;;2.37;2.37;;;;;;;;;;6165316;28;20469;-74
2023/03/20 05:19:20;;;;;;;3.27;3.07;;;;;;;;;;6163978;28;20637;-75
2023/03/20 05:22:50;;;;;;;2.90;2.70;;;;;;;;;;6161881;28;20553;-75
2023/03/20 05:26:12;;;;;;;3.83;2.60;;;;;;;;;;6163160;28;20296;-75
2023/03/20 05:29:40;;;;;;;3.20;3.03;;;;;;;;;;6162239;28;20308;-75
2023/03/20 05:32:57;;;;;;;4.93;3.40;;;;;;;;;;6162128;28;20297;-75
2023/03/20 05:36:06;;;;;;;4.03;3.30;;;;;;;;;;6164880;28;20309;-73
2023/03/20 05:39:30;;;;;;;3.80;3.40;;;;;;;;;;6163558;28;20305;-75
2023/03/20 05:42:50;;;;;;;4.57;3.70;;;;;;;;;;6161858;28;20300;-75
2023/03/20 05:46:05;;;;;;;3.80;3.50;;;;;;;;;;6164395;28;20296;-74
2023/03/20 05:49:11;;;;;;;4.70;3.70;;;;;;;;;;6164027;28;20302;-76
2023/03/20 05:52:26;;;;;;;4.97;4.40;;;;;;;;;;6163806;28;20289;-73
2023/03/20 05:55:55;;;;;;;4.47;4.03;;;;;;;;;;6162111;28;20381;-74
2023/03/20 05:59:20;;;;;;;7.47;4.07;;;;;;;;;;6194241;28;20292;-74
2023/03/20 06:02:48;;;;;;;4.20;3.80;;;;;;;;;;6144716;28;20296;-75
2023/03/20 06:06:21;;;;;;;8.00;4.10;;;;;;;;;;6162197;28;20298;-73
2023/03/20 06:09:28;;;;;;;5.80;4.43;;;;;;;;;;6162727;28;20300;-74
2023/03/20 06:12:36;;;;;;;6.13;5.07;;;;;;;;;;6161825;28;20330;-75
2023/03/20 06:15:41;;;;;;;9.23;5.43;;;;;;;;;;6163339;28;20305;-74
2023/03/20 06:18:52;;;;;;;8.37;5.40;;;;;;;;;;6161125;28;20606;-74
2023/03/20 06:21:58;;;;;;;10.87;5.37;;;;;;;;;;6162541;28;20297;-75
2023/03/20 06:25:04;;;;;;;12.30;5.50;;;;;;;;;;6162145;28;20313;-75
2023/03/20 06:28:15;;;;;;;8.83;5.70;;;;;;;;;;6162958;28;20313;-74
2023/03/20 06:31:22;;;;;;;12.93;6.40;;;;;;;;;;6162728;28;20306;-76
2023/03/20 06:34:27;;;;;;;11.80;6.13;;;;;;;;;;6162891;28;20321;-73
2023/03/20 06:37:35;;;;;;;14.00;6.43;;;;;;;;;;6160944;28;20601;-76
2023/03/20 06:40:46;;;;;;;17.23;6.83;;;;;;;;;;6161846;28;20502;-75
2023/03/20 06:43:54;;;;;;;12.43;6.73;;;;;;;;;;6162020;28;20487;-75
2023/03/20 06:47:04;;;;;;;14.77;7.27;;;;;;;;;;6161674;28;20610;-75
2023/03/20 06:50:13;;;;;;;16.27;7.37;;;;;;;;;;6162260;28;20301;-75
2023/03/20 06:53:19;;;;;;;15.33;7.67;;;;;;;;;;6162121;28;20309;-74
2023/03/20 06:56:34;;;;;;;18.30;7.20;;;;;;;;;;6161613;28;20302;-75
2023/03/20 06:59:39;;;;;;;14.10;7.40;;;;;;;;;;6162470;28;20294;-74
2023/03/20 07:02:44;;;;;;;17.97;7.87;;;;;;;;;;6193973;28;20306;-74
2023/03/20 07:05:52;;;;;;;16.23;7.83;;;;;;;;;;6193820;28;20313;-75
2023/03/20 07:09:01;;;;;;;11.90;7.13;;;;;;;;;;6193180;28;20305;-75
2023/03/20 07:12:13;;;;;;;16.90;6.83;;;;;;;;;;6161556;28;20309;-74
2023/03/20 07:15:20;;;;;;;14.50;7.10;;;;;;;;;;6161273;28;20297;-74
2023/03/20 07:18:26;;;;;;;20.60;8.23;;;;;;;;;;6165404;28;20306;-75
2023/03/20 07:21:32;;;;;;;12.97;7.50;;;;;;;;;;6166154;28;20294;-74
2023/03/20 07:24:40;;;;;;;17.30;8.17;;;;;;;;;;6165642;28;20300;-74
2023/03/20 07:27:49;;;;;;;19.83;8.10;;;;;;;;;;6165728;28;20302;-76
2023/03/20 07:30:58;;;;;;;16.13;7.57;;;;;;;;;;6166271;28;20298;-75
2023/03/20 07:34:03;;;;;;;14.70;7.37;;;;;;;;;;6166237;28;20298;-75
2023/03/20 07:37:11;;;;;;;16.03;7.67;;;;;;;;;;6166272;28;20290;-75
2023/03/20 07:40:19;;;;;;;16.00;7.63;;;;;;;;;;6166241;28;20305;-76
2023/03/20 07:43:34;;;;;;;13.87;8.03;;;;;;;;;;6165103;28;20306;-75
2023/03/20 07:47:12;;;;;;;17.37;8.00;;;;;;;;;;6166043;28;20345;-74
2023/03/20 07:50:18;;;;;;;14.47;7.53;;;;;;;;;;6198260;28;20320;-77
2023/03/20 07:53:23;;;;;;;16.60;8.13;;;;;;;;;;6166600;28;20382;-74
2023/03/20 07:56:29;;;;;;;17.40;8.02;;;;;;;;;;6166326;28;20298;-76
2023/03/20 07:59:35;;;;;;;14.43;7.57;;;;;;;;;;6164787;28;20307;-74
2023/03/20 08:02:40;;;;;;;15.90;8.23;;;;;;;;;;6165827;28;20310;-76
2023/03/20 08:05:45;;;;;;;13.67;7.97;;;;;;;;;;6165602;28;20294;-74
2023/03/20 08:08:52;;;;;;;12.93;7.17;;;;;;;;;;6164887;28;20305;-78
2023/03/20 08:11:58;;;;;;;13.95;8.40;;;;;;;;;;6166549;28;20475;-74
2023/03/20 08:15:04;;;;;;;17.03;8.23;;;;;;;;;;6166131;28;20294;-74
2023/03/20 08:18:11;;;;;;;19.10;8.85;;;;;;;;;;6165758;28;20294;-75
2023/03/20 08:21:16;;;;;;;17.67;8.90;;;;;;;;;;6166410;28;20298;-75
2023/03/20 08:24:22;;;;;;;17.30;8.90;;;;;;;;;;6166440;28;20307;-76
2023/03/20 08:27:28;;;;;;;16.42;8.82;;;;;;;;;;6165469;28;20582;-75
2023/03/20 08:30:33;;;;;;;20.92;10.10;;;;;;;;;;6165676;28;20298;-74
2023/03/20 08:33:38;;;;;;;20.50;10.70;;;;;;;;;;6166353;28;20302;-74
2023/03/20 08:36:44;;;;;;;19.80;10.27;;;;;;;;;;6165278;28;20303;-75
2023/03/20 08:39:49;;;;;;;23.25;10.52;;;;;;;;;;6165801;28;20603;-75
2023/03/20 08:42:56;;;;;;;22.60;9.18;;;;;;;;;;6165547;28;20306;-75
2023/03/20 08:46:01;;;;;;;23.10;9.82;;;;;;;;;;6165897;28;20298;-75
2023/03/20 08:49:07;;;;;;;23.17;10.85;;;;;;;;;;6165589;28;20302;-75
2023/03/20 08:52:12;;;;;;;21.50;10.45;;;;;;;;;;6165914;28;20468;-75
2023/03/20 08:55:18;;;;;;;20.35;10.02;;;;;;;;;;6164397;28;20613;-75
2023/03/20 08:58:25;;;;;;;18.30;9.57;;;;;;;;;;6165630;28;20465;-74
2023/03/20 09:01:30;;;;;;;19.00;10.32;;;;;;;;;;6165716;28;20318;-75
2023/03/20 09:04:52;;;;;;;19.67;9.20;;;;;;;;;;6162975;28;20303;-74
2023/03/20 09:07:57;;;;;;;21.02;9.88;;;;;;;;;;6166226;28;20294;-75
2023/03/20 09:11:02;;;;;;;20.95;9.45;;;;;;;;;;6164771;28;20294;-75
2023/03/20 09:14:09;;;;;;;16.20;9.20;;;;;;;;;;6164550;28;20415;-75
2023/03/20 09:17:14;;;;;;;16.67;8.70;;;;;;;;;;6164947;28;20290;-76
2023/03/20 09:20:20;;;;;;;19.15;9.15;;;;;;;;;;6164511;28;20310;-75
2023/03/20 09:23:25;;;;;;;17.55;8.98;;;;;;;;;;6164421;28;20299;-75
2023/03/20 09:26:30;;;;;;;17.35;9.00;;;;;;;;;;6164583;28;20290;-75
2023/03/20 09:29:37;;;;;;;18.90;9.30;;;;;;;;;;6163768;28;20306;-75
2023/03/20 09:32:42;;;;;;;18.70;9.55;;;;;;;;;;6165027;28;20290;-75
2023/03/20 09:35:47;;;;;;;20.10;9.35;;;;;;;;;;6165000;28;20298;-76
2023/03/20 09:38:53;;;;;;;21.67;10.80;;;;;;;;;;6163877;28;20294;-75
2023/03/20 09:42:00;;;;;;;20.10;9.18;;;;;;;;;;6164380;28;20298;-75
2023/03/20 09:45:11;;;;;;;20.02;9.82;;;;;;;;;;6163309;28;20294;-75
2023/03/20 09:48:23;;;;;;;17.83;9.43;;;;;;;;;;6163974;28;20415;-74
2023/03/20 09:51:32;;;;;;;19.83;9.63;;;;;;;;;;6163968;28;20302;-75
2023/03/20 09:54:39;;;;;;;19.25;9.65;;;;;;;;;;6145710;28;20478;-74
2023/03/20 09:58:02;;;;;;;21.15;9.98;;;;;;;;;;6139717;28;20291;-74
2023/03/20 10:01:14;;;;;;;18.08;9.93;;;;;;;;;;6139313;28;20303;-74
2023/03/20 10:04:19;;;;;;;17.23;9.55;;;;;;;;;;6138898;28;20294;-75
2023/03/20 10:07:25;;;;;;;18.45;9.30;;;;;;;;;;6140741;28;20299;-74
2023/03/20 10:10:39;;;;;;;16.08;9.77;;;;;;;;;;6148002;28;20298;-76
2023/03/20 10:13:55;;;;;;;18.42;9.57;;;;;;;;;;6162630;28;20403;-75
2023/03/20 10:17:13;;;;;;;17.63;9.32;;;;;;;;;;6163154;28;20286;-75
2023/03/20 10:20:25;;;;;;;20.92;10.15;;;;;;;;;;6163042;28;20307;-74
2023/03/20 10:23:36;;;;;;;18.48;9.60;;;;;;;;;;6162885;28;20302;-74
2023/03/20 10:26:41;;;;;;;17.80;9.88;;;;;;;;;;6163240;28;20471;-75
2023/03/20 10:29:55;;;;;;;20.45;10.93;;;;;;;;;;6162862;28;20487;-74
2023/03/20 10:33:11;;;;;;;19.35;10.52;;;;;;;;;;6162326;28;20303;-75
2023/03/20 10:36:29;;;;;;;18.23;10.52;;;;;;;;;;6163442;28;20294;-75
2023/03/20 10:39:49;;;;;;;19.17;9.57;;;;;;;;;;6162637;28;20298;-74
2023/03/20 10:42:57;;;;;;;17.67;10.48;;;;;;;;;;6163609;28;20295;-75
2023/03/20 10:46:05;;;;;;;18.80;9.85;;;;;;;;;;6163306;28;20306;-74
2023/03/20 10:49:17;;;;;;;22.98;11.10;;;;;;;;;;6162541;28;20306;-74
2023/03/20 10:52:26;;;;;;;20.67;10.68;;;;;;;;;;6162551;28;20299;-75
2023/03/20 10:55:35;;;;;;;23.30;10.65;;;;;;;;;;6162393;28;20294;-76
2023/03/20 10:58:42;;;;;;;17.23;10.00;;;;;;;;;;6161625;28;20294;-73
2023/03/20 11:01:47;;;;;;;18.33;9.95;;;;;;;;;;6162159;28;20310;-74
2023/03/20 11:04:53;;;;;;;18.77;10.52;;;;;;;;;;6162312;28;20598;-75
2023/03/20 11:08:03;;;;;;;18.92;9.93;;;;;;;;;;6162779;28;20593;-75
2023/03/20 11:11:09;;;;;;;18.58;10.63;;;;;;;;;;6163451;28;20294;-76
2023/03/20 11:14:19;;;;;;;19.23;10.38;;;;;;;;;;6163607;28;20291;-75
2023/03/20 11:17:29;;;;;;;18.48;9.98;;;;;;;;;;6161870;28;20590;-75
2023/03/20 11:20:40;;;;;;;19.65;9.82;;;;;;;;;;6163082;28;20294;-74
2023/03/20 11:23:45;;;;;;;16.00;9.82;;;;;;;;;;6162254;28;20299;-75
2023/03/20 11:26:52;;;;;;;18.90;10.23;;;;;;;;;;6162621;28;20580;-74
2023/03/20 11:30:00;;;;;;;19.33;10.60;;;;;;;;;;6162275;28;20306;-74
2023/03/20 11:33:07;;;;;;;16.70;10.13;;;;;;;;;;6162703;28;20294;-74
2023/03/20 11:36:22;;;;;;;18.08;10.23;;;;;;;;;;6162691;28;20433;-76
2023/03/20 11:39:32;;;;;;;17.25;9.93;;;;;;;;;;6162416;28;20291;-75
2023/03/20 11:42:38;;;;;;;16.48;9.75;;;;;;;;;;6160953;28;20310;-75
2023/03/20 11:45:45;;;;;;;16.50;10.38;;;;;;;;;;6193300;28;20582;-75
2023/03/20 11:49:04;;;;;;;16.92;10.50;;;;;;;;;;6161793;28;20622;-75
2023/03/20 11:52:15;;;;;;;15.88;9.55;;;;;;;;;;6162597;28;20307;-75
2023/03/20 11:55:27;;;;;;;15.70;8.95;;;;;;;;;;6162218;28;20295;-74
2023/03/20 11:58:32;;;;;;;16.98;10.20;;;;;;;;;;6162093;28;20294;-75
2023/03/20 12:01:43;;;;;;;13.55;9.38;;;;;;;;;;6161502;28;20298;-75
2023/03/20 12:04:48;;;;;;;14.23;9.65;;;;;;;;;;6164545;28;20589;-75
2023/03/20 12:07:57;;;;;;;16.65;9.70;;;;;;;;;;6165530;28;20364;-75
2023/03/20 12:11:09;;;;;;;15.40;9.88;;;;;;;;;;6166333;28;20385;-74
2023/03/20 12:14:22;;;;;;;15.88;10.13;;;;;;;;;;6165214;28;20607;-76
2023/03/20 12:17:35;;;;;;;15.15;9.85;;;;;;;;;;6166021;28;20290;-75
2023/03/20 12:20:43;;;;;;;16.77;9.73;;;;;;;;;;6165130;28;20306;-74
2023/03/20 12:23:53;;;;;;;20.90;10.52;;;;;;;;;;6165363;28;20409;-75
2023/03/20 12:27:06;;;;;;;17.80;9.88;;;;;;;;;;6166189;28;20473;-77
2023/03/20 12:30:15;;;;;;;15.95;9.55;;;;;;;;;;6165674;28;20309;-74
2023/03/20 12:33:26;;;;;;;16.02;9.93;;;;;;;;;;6165707;28;20298;-75
2023/03/20 12:36:34;;;;;;;16.48;10.23;;;;;;;;;;6166012;28;20303;-76
2023/03/20 12:39:48;;;;;;;16.73;9.75;;;;;;;;;;6165975;28;20298;-75
2023/03/20 12:43:01;;;;;;;19.10;10.38;;;;;;;;;;6195957;28;20299;-76
2023/03/20 12:46:12;;;;;;;14.50;9.63;;;;;;;;;;6180629;28;20294;-75
2023/03/20 12:49:26;;;;;;;17.58;9.82;;;;;;;;;;6164618;28;20298;-74
2023/03/20 12:52:38;;;;;;;13.00;8.80;;;;;;;;;;6165701;28;20473;-74
2023/03/20 12:55:53;;;;;;;14.05;9.90;;;;;;;;;;6164914;28;20270;-73
2023/03/20 12:59:01;;;;;;;16.13;9.30;;;;;;;;;;6165154;28;20295;-77
2023/03/20 13:02:26;;;;;;;14.98;9.48;;;;;;;;;;6164158;28;20294;-77
2023/03/20 13:05:43;;;;;;;13.25;9.40;;;;;;;;;;6164169;28;20306;-75
2023/03/20 13:09:01;;;;;;;13.65;9.80;;;;;;;;;;6164730;28;20578;-74
2023/03/20 13:12:16;;;;;;;13.35;9.50;;;;;;;;;;6163913;28;20303;-74
2023/03/20 13:15:34;;;;;;;12.55;9.45;;;;;;;;;;6165086;28;20298;-74
2023/03/20 13:18:49;;;;;;;13.25;9.20;;;;;;;;;;6163630;28;20303;-75
2023/03/20 13:21:58;;;;;;;12.93;7.65;;;;;;;;;;6165105;28;20298;-75
2023/03/20 13:25:10;;;;;;;8.73;6.95;;;;;;;;;;6163895;28;20600;-74
2023/03/20 13:28:22;;;;;;;8.45;4.72;;;;;;;;;;6164988;28;20298;-75
2023/03/20 13:31:36;;;;;;;5.18;4.65;;;;;;;;;;6164419;28;20610;-75
2023/03/20 13:34:54;;;;;;;4.35;4.05;;;;;;;;;;6161992;28;20299;-75
2023/03/20 13:38:02;;;;;;;4.13;3.88;;;;;;;;;;6164265;28;20291;-75
2023/03/20 13:41:08;;;;;;;4.03;3.58;;;;;;;;;;6164370;28;20290;-74
2023/03/20 13:44:19;;;;;;;3.40;3.28;;;;;;;;;;6164527;28;20307;-74
2023/03/20 13:47:27;;;;;;;3.38;3.20;;;;;;;;;;6164171;28;20401;-75
2023/03/20 13:50:42;;;;;;;3.63;3.42;;;;;;;;;;6163014;28;20294;-73
2023/03/20 13:54:00;;;;;;;3.58;3.38;;;;;;;;;;6164384;28;20322;-74
2023/03/20 13:57:12;;;;;;;4.07;3.10;;;;;;;;;;6164527;28;20290;-73
2023/03/20 14:00:27;;;;;;;3.17;2.85;;;;;;;;;;6163696;28;20542;-75
2023/03/20 14:03:33;;;;;;;2.88;2.78;;;;;;;;;;6163590;28;20310;-75
2023/03/20 14:06:49;;;;;;;2.70;2.70;;;;;;;;;;6162445;28;20290;-74
2023/03/20 14:09:56;;;;;;;2.90;2.80;;;;;;;;;;6163713;28;20294;-79
2023/03/20 14:13:03;;;;;;;2.97;2.88;;;;;;;;;;6163337;28;20298;-75
2023/03/20 14:16:11;;;;;;;2.58;2.58;;;;;;;;;;6163453;28;20290;-75
2023/03/20 14:19:19;;;;;;;2.28;2.17;;;;;;;;;;6163271;28;20302;-76
2023/03/20 14:22:28;;;;;;;1.80;1.70;;;;;;;;;;6163404;28;20318;-75
2023/03/20 14:25:37;;;;;;;1.88;1.30;;;;;;;;;;6162248;28;20310;-75
2023/03/20 14:28:49;;;;;;;1.20;1.10;;;;;;;;;;6161859;28;20468;-75
2023/03/20 14:32:04;;;;;;;1.30;1.30;;;;;;;;;;6163535;28;20331;-76
2023/03/20 14:35:24;;;;;;;1.17;1.08;;;;;;;;;;6161834;28;20295;-75
2023/03/20 14:38:33;;;;;;;2.47;2.30;;;;;;;;;;6162629;28;20298;-75
2023/03/20 14:41:48;;;;;;;2.70;1.10;;;;;;;;;;6162163;28;20298;-75
2023/03/20 14:45:25;;;;;;;0.70;0.70;;;;;;;;;;6162452;28;20299;-76
2023/03/20 14:48:36;;;;;;;0.60;0.60;;;;;;;;;;6160992;28;20634;-76
2023/03/20 14:51:44;;;;;;;0.82;0.82;;;;;;;;;;6163342;28;20295;-75
2023/03/20 14:54:53;;;;;;;0.77;0.77;;;;;;;;;;6162940;28;20499;-74
2023/03/20 14:58:02;;;;;;;0.70;0.70;;;;;;;;;;6162827;28;20290;-74
2023/03/20 15:01:09;;;;;;;0.65;0.65;;;;;;;;;;6162945;28;20598;-74
2023/03/20 15:04:31;;;;;;;0.90;0.90;;;;;;;;;;6161370;28;20298;-74
2023/03/20 15:07:38;;;;;;;0.70;0.70;;;;;;;;;;6161267;28;20275;-76
2023/03/20 15:10:47;;;;;;;1.90;1.90;;;;;;;;;;6162761;28;20282;-77
2023/03/20 15:13:53;;;;;;;0.70;0.70;;;;;;;;;;6161995;28;20408;-73
2023/03/20 15:16:59;;;;;;;0.70;0.70;;;;;;;;;;6162573;28;20289;-75
2023/03/20 15:20:14;;;;;;;1.20;0.77;;;;;;;;;;6163068;28;20291;-75
2023/03/20 15:23:19;;;;;;;0.70;0.70;;;;;;;;;;6162137;28;20302;-74
2023/03/20 15:26:25;;;;;;;0.63;0.63;;;;;;;;;;6162822;28;20290;-75
2023/03/20 15:29:31;;;;;;;0.80;0.80;;;;;;;;;;6162342;28;20582;-75
2023/03/20 15:32:36;;;;;;;0.67;0.67;;;;;;;;;;6161637;28;20294;-76
2023/03/20 15:35:44;;;;;;;0.60;0.60;;;;;;;;;;6161965;28;20302;-75
2023/03/20 15:38:50;;;;;;;0.70;0.70;;;;;;;;;;6164042;28;20306;-74
2023/03/20 15:41:57;;;;;;;0.97;0.90;;;;;;;;;;6167100;28;20346;-75
2023/03/20 15:45:13;;;;;;;0.60;0.60;;;;;;;;;;6165561;28;20301;-75
2023/03/20 15:48:20;;;;;;;0.80;0.80;;;;;;;;;;6166759;28;20298;-75
2023/03/20 15:51:28;;;;;;;0.60;0.60;;;;;;;;;;6166426;28;20305;-75
2023/03/20 15:54:36;;;;;;;1.13;0.60;;;;;;;;;;6165960;28;20402;-75
2023/03/20 15:57:43;;;;;;;0.60;0.60;;;;;;;;;;6164875;28;20294;-76
2023/03/20 16:00:49;;;;;;;0.70;0.67;;;;;;;;;;6166735;28;20305;-76
2023/03/20 16:03:58;;;;;;;0.50;0.50;;;;;;;;;;6166104;28;20485;-75
2023/03/20 16:07:05;;;;;;;0.60;0.60;;;;;;;;;;6166528;28;20308;-75
2023/03/20 16:10:18;;;;;;;0.50;0.50;;;;;;;;;;6164732;28;20297;-74
2023/03/20 16:13:28;;;;;;;2.10;2.10;;;;;;;;;;6165310;28;20299;-74
2023/03/20 16:16:37;;;;;;;0.73;0.73;;;;;;;;;;6164731;28;20285;-75
2023/03/20 16:19:43;;;;;;;0.70;0.70;;;;;;;;;;6167101;28;20319;-76
2023/03/20 16:22:51;;;;;;;0.80;0.80;;;;;;;;;;6165146;28;20305;-74
2023/03/20 16:25:58;;;;;;;1.10;1.10;;;;;;;;;;6166157;28;20297;-75
2023/03/20 16:29:04;;;;;;;1.57;1.57;;;;;;;;;;6164810;28;20297;-75
2023/03/20 16:32:25;;;;;;;1.00;1.00;;;;;;;;;;6166104;28;20300;-75
2023/03/20 16:35:37;;;;;;;0.80;0.80;;;;;;;;;;6163569;28;20566;-75
2023/03/20 16:38:55;;;;;;;0.70;0.70;;;;;;;;;;6165381;28;20312;-76
2023/03/20 16:42:11;;;;;;;0.70;0.70;;;;;;;;;;6166364;28;20295;-74
2023/03/20 16:45:25;;;;;;;0.90;0.90;;;;;;;;;;6166192;28;20293;-75
2023/03/20 16:48:36;;;;;;;0.70;0.70;;;;;;;;;;6165586;28;20482;-77
2023/03/20 16:51:44;;;;;;;1.10;1.10;;;;;;;;;;6166520;28;20297;-75
2023/03/20 16:54:50;;;;;;;0.80;0.80;;;;;;;;;;6164665;28;20307;-75
2023/03/20 16:57:58;;;;;;;0.67;0.60;;;;;;;;;;6165495;28;20303;-75
2023/03/20 17:01:04;;;;;;;0.70;0.70;;;;;;;;;;6164833;28;20302;-74
2023/03/20 17:04:18;;;;;;;0.80;0.80;;;;;;;;;;6164663;28;20457;-75
2023/03/20 17:07:26;;;;;;;0.80;0.80;;;;;;;;;;6165196;28;20296;-74
2023/03/20 17:10:33;;;;;;;0.90;0.90;;;;;;;;;;6164286;28;20292;-75
2023/03/20 17:13:40;;;;;;;0.80;0.80;;;;;;;;;;6162786;28;20458;-74
2023/03/20 17:16:45;;;;;;;0.90;0.90;;;;;;;;;;6165449;28;20342;-75
2023/03/20 17:19:50;;;;;;;0.90;0.90;;;;;;;;;;6165273;28;20304;-76
2023/03/20 17:22:56;;;;;;;0.90;0.90;;;;;;;;;;6164140;28;20292;-75
2023/03/20 17:26:02;;;;;;;0.70;0.70;;;;;;;;;;6165106;28;20293;-75
2023/03/20 17:29:09;;;;;;;1.00;1.00;;;;;;;;;;6163585;28;20304;-75
2023/03/20 17:32:16;;;;;;;1.20;1.20;;;;;;;;;;6163089;28;20307;-75
2023/03/20 17:35:21;;;;;;;0.80;0.80;;;;;;;;;;6164419;28;20304;-74
2023/03/20 17:38:27;;;;;;;0.90;0.90;;;;;;;;;;6163711;28;20477;-74
2023/03/20 17:41:33;;;;;;;1.00;1.00;;;;;;;;;;6164340;28;20299;-75
2023/03/20 17:44:38;;;;;;;1.00;1.00;;;;;;;;;;6164131;28;20301;-74
2023/03/20 17:47:45;;;;;;;1.80;1.00;;;;;;;;;;6163342;28;20488;-73
2023/03/20 17:50:50;;;;;;;1.10;1.10;;;;;;;;;;6164515;28;20307;-75
2023/03/20 17:53:56;;;;;;;0.73;0.73;;;;;;;;;;6162818;28;20563;-75
2023/03/20 17:57:03;;;;;;;0.83;0.83;;;;;;;;;;6164348;28;20301;-74
2023/03/20 18:00:13;;;;;;;0.80;0.80;;;;;;;;;;6163457;28;20293;-75
2023/03/20 18:03:19;;;;;;;1.03;1.00;;;;;;;;;;6163112;28;20296;-76
2023/03/20 18:06:27;;;;;;;0.90;0.90;;;;;;;;;;6164037;28;20299;-75
2023/03/20 18:09:32;;;;;;;1.00;1.00;;;;;;;;;;6163643;28;20296;-75
2023/03/20 18:12:38;;;;;;;0.80;0.80;;;;;;;;;;6163557;28;20298;-75
2023/03/20 18:15:46;;;;;;;0.90;0.90;;;;;;;;;;6164257;28;20309;-76
2023/03/20 18:18:51;;;;;;;1.30;1.30;;;;;;;;;;6163931;28;20303;-74
2023/03/20 18:21:57;;;;;;;2.00;1.97;;;;;;;;;;6164243;28;20292;-76
2023/03/20 18:25:03;;;;;;;1.50;1.40;;;;;;;;;;6163496;28;20310;-74
2023/03/20 18:28:19;;;;;;;1.03;1.03;;;;;;;;;;6163099;28;20349;-75
2023/03/20 18:31:24;;;;;;;1.07;1.07;;;;;;;;;;6164641;28;20291;-76
2023/03/20 18:34:30;;;;;;;1.10;1.10;;;;;;;;;;6163677;28;20299;-75
2023/03/20 18:37:35;;;;;;;0.97;0.97;;;;;;;;;;6162177;28;20278;-76
2023/03/20 18:40:42;;;;;;;1.10;1.10;;;;;;;;;;6163836;28;20260;-76
2023/03/20 18:43:49;;;;;;;3.30;1.50;;;;;;;;;;6163456;28;20324;-76
2023/03/20 18:46:54;;;;;;;1.77;1.40;;;;;;;;;;6162901;28;20307;-75
2023/03/20 18:49:59;;;;;;;1.40;1.40;;;;;;;;;;6162851;28;20287;-75